Time;durP1;ratioP1;P1;durP2;ratioP2;P2;SDS_P1;SDS_P2;PMS_P1;PMS_P2;Temp;Humidity;BMP_temperature;BMP_pressure;BME280_temperature;BME280_humidity;BME280_pressure;Samples;Min_cycle;Max_cycle;Signal;HPM_P1;HPM_P2
2020/12/06 00:01:17;;;;;;;115.33;35.40;;;2.90;99.90;;;;;;5034912;28;20431;-83
2020/12/06 00:03:43;;;;;;;53.63;26.67;;;3.20;99.90;;;;;;5036123;28;20419;-84
2020/12/06 00:06:08;;;;;;;65.60;29.27;;;3.30;99.90;;;;;;5036217;28;20255;-83
2020/12/06 00:08:34;;;;;;;54.00;26.90;;;3.20;99.90;;;;;;5035601;28;20164;-82
2020/12/06 00:10:59;;;;;;;40.43;26.30;;;2.90;99.90;;;;;;5034279;28;20177;-83
2020/12/06 00:13:25;;;;;;;41.77;27.20;;;2.80;99.90;;;;;;5035323;28;20173;-85
2020/12/06 00:15:51;;;;;;;66.20;30.20;;;3.00;99.90;;;;;;5034963;28;20176;-84
2020/12/06 00:18:17;;;;;;;36.00;25.50;;;3.30;99.90;;;;;;5033481;28;20227;-83
2020/12/06 00:20:42;;;;;;;45.73;30.63;;;3.10;99.90;;;;;;5033434;28;20196;-83
2020/12/06 00:23:08;;;;;;;45.80;27.50;;;3.30;99.90;;;;;;5033668;28;20424;-83
2020/12/06 00:25:33;;;;;;;32.03;24.33;;;3.00;99.90;;;;;;5033488;28;20172;-84
2020/12/06 00:27:59;;;;;;;39.93;30.40;;;3.00;99.90;;;;;;5033217;28;20177;-83
2020/12/06 00:30:25;;;;;;;31.87;24.03;;;3.10;99.90;;;;;;5034770;28;20168;-83
2020/12/06 00:32:50;;;;;;;31.23;24.80;;;3.50;99.90;;;;;;5033360;28;20532;-84
2020/12/06 00:35:16;;;;;;;39.27;29.43;;;3.30;99.90;;;;;;5033317;28;20527;-83
2020/12/06 00:37:42;;;;;;;37.63;26.80;;;3.40;99.90;;;;;;5033142;28;20308;-84
2020/12/06 00:40:08;;;;;;;32.37;23.97;;;3.10;99.90;;;;;;5034440;28;20176;-84
2020/12/06 00:42:34;;;;;;;33.60;24.57;;;3.00;99.90;;;;;;5034415;28;20175;-85
2020/12/06 00:45:01;;;;;;;34.50;25.57;;;2.90;99.90;;;;;;5033090;28;20863;-84
2020/12/06 00:47:27;;;;;;;34.13;24.83;;;3.40;99.90;;;;;;5034270;28;20438;-83
2020/12/06 00:49:52;;;;;;;39.40;24.63;;;3.40;99.90;;;;;;5033022;28;20506;-83
2020/12/06 00:52:18;;;;;;;33.43;23.30;;;2.90;99.90;;;;;;5033383;28;20177;-83
2020/12/06 00:54:43;;;;;;;40.40;25.33;;;3.30;99.90;;;;;;5034148;28;20222;-83
2020/12/06 00:57:09;;;;;;;46.13;27.07;;;3.40;99.90;;;;;;5033938;28;20307;-84
2020/12/06 00:59:34;;;;;;;37.60;24.80;;;3.10;99.90;;;;;;5034017;28;20237;-83
2020/12/06 01:02:03;;;;;;;64.37;24.10;;;3.40;99.90;;;;;;5034117;28;20164;-83
2020/12/06 01:04:28;;;;;;;130.77;30.90;;;3.40;99.90;;;;;;5034082;28;20701;-84
2020/12/06 01:06:57;;;;;;;117.93;30.77;;;3.40;99.90;;;;;;5032651;28;20514;-83
2020/12/06 01:09:23;;;;;;;140.27;35.40;;;2.80;99.90;;;;;;5032602;28;20180;-83
2020/12/06 01:11:49;;;;;;;145.87;36.70;;;2.80;99.90;;;;;;5032487;28;20514;-84
2020/12/06 01:14:14;;;;;;;116.53;31.97;;;3.10;99.90;;;;;;5033782;28;20173;-83
2020/12/06 01:16:40;;;;;;;208.20;38.67;;;3.40;99.90;;;;;;5033688;28;20220;-83
2020/12/06 01:19:05;;;;;;;199.57;41.03;;;3.50;99.90;;;;;;5033872;28;20737;-83
2020/12/06 01:21:31;;;;;;;353.70;48.03;;;3.30;99.90;;;;;;5032621;28;20177;-83
2020/12/06 01:23:56;;;;;;;153.93;28.60;;;3.00;99.90;;;;;;5033631;28;20227;-82
2020/12/06 01:26:22;;;;;;;218.03;35.90;;;2.90;99.90;;;;;;5033687;28;20238;-83
2020/12/06 01:28:47;;;;;;;231.47;34.67;;;2.90;99.90;;;;;;5032222;28;20176;-82
2020/12/06 01:31:13;;;;;;;208.37;34.60;;;3.10;99.90;;;;;;5032293;28;20180;-84
2020/12/06 01:33:39;;;;;;;186.20;31.57;;;3.10;99.90;;;;;;5033581;28;20195;-83
2020/12/06 01:36:04;;;;;;;146.60;29.53;;;2.70;99.90;;;;;;5038400;28;20168;-83
2020/12/06 01:38:30;;;;;;;97.07;26.37;;;2.70;99.90;;;;;;5033588;28;20211;-83
2020/12/06 01:40:55;;;;;;;104.03;26.93;;;3.20;99.90;;;;;;5032512;28;20181;-83
2020/12/06 01:43:21;;;;;;;88.10;28.60;;;3.20;99.90;;;;;;5033550;28;20183;-82
2020/12/06 01:45:46;;;;;;;220.00;33.63;;;2.80;99.90;;;;;;5033365;28;20184;-84
2020/12/06 01:48:13;;;;;;;164.67;29.50;;;2.80;99.90;;;;;;5033342;28;20641;-83
2020/12/06 01:50:39;;;;;;;171.13;31.43;;;2.80;99.90;;;;;;5033347;28;20656;-83
2020/12/06 01:53:06;;;;;;;210.70;33.57;;;2.80;99.90;;;;;;5032001;28;20427;-83
2020/12/06 01:55:32;;;;;;;171.37;33.30;;;2.80;99.90;;;;;;5033285;28;20415;-83
2020/12/06 01:58:06;;;;;;;144.30;31.67;;;3.10;99.90;;;;;;5031870;28;20848;-84
2020/12/06 02:00:38;;;;;;;119.00;30.80;;;3.20;99.90;;;;;;5033211;28;20174;-83
2020/12/06 02:03:05;;;;;;;155.50;30.57;;;3.20;99.90;;;;;;5033535;28;20435;-83
2020/12/06 02:05:32;;;;;;;218.40;34.90;;;3.20;99.90;;;;;;5037406;28;20841;-83
2020/12/06 02:07:58;;;;;;;134.93;29.77;;;2.90;99.90;;;;;;5037428;28;20412;-83
2020/12/06 02:10:28;;;;;;;152.33;29.53;;;3.30;99.90;;;;;;5037221;28;20828;-83
2020/12/06 02:12:55;;;;;;;123.17;29.47;;;2.80;99.90;;;;;;5037112;28;20567;-83
2020/12/06 02:15:21;;;;;;;181.93;31.23;;;3.00;99.90;;;;;;5035901;28;20514;-83
2020/12/06 02:17:47;;;;;;;157.40;29.80;;;2.70;99.90;;;;;;5036991;28;20502;-83
2020/12/06 02:20:13;;;;;;;410.87;50.40;;;3.20;99.90;;;;;;5036970;28;20434;-82
2020/12/06 02:22:38;;;;;;;254.57;38.57;;;2.60;99.90;;;;;;5035682;28;20455;-83
2020/12/06 02:25:04;;;;;;;187.37;32.83;;;3.10;99.90;;;;;;5036855;28;20906;-83
2020/12/06 02:27:30;;;;;;;82.00;26.33;;;3.20;99.90;;;;;;5036004;28;20187;-83
2020/12/06 02:29:56;;;;;;;61.13;23.70;;;2.80;99.90;;;;;;5036872;28;20419;-83
2020/12/06 02:32:22;;;;;;;117.17;29.43;;;2.80;99.90;;;;;;5035582;28;20416;-83
2020/12/06 02:34:47;;;;;;;158.33;28.77;;;2.80;99.90;;;;;;5036813;28;20706;-82
2020/12/06 02:37:13;;;;;;;84.27;25.50;;;3.00;99.90;;;;;;5035355;28;20568;-82
2020/12/06 02:39:39;;;;;;;75.53;25.00;;;2.60;99.90;;;;;;5036492;28;20561;-83
2020/12/06 02:42:04;;;;;;;153.73;29.17;;;2.70;99.90;;;;;;5036621;28;20427;-84
2020/12/06 02:44:30;;;;;;;315.00;42.87;;;2.70;99.90;;;;;;5036668;28;20532;-83
2020/12/06 02:46:55;;;;;;;140.67;29.00;;;2.70;99.90;;;;;;5040197;28;20714;-83
2020/12/06 02:49:21;;;;;;;121.53;26.93;;;2.80;99.90;;;;;;5037170;28;20196;-82
2020/12/06 02:51:46;;;;;;;284.83;45.37;;;3.20;99.90;;;;;;5036655;28;20177;-83
2020/12/06 02:54:12;;;;;;;311.20;41.60;;;2.70;99.90;;;;;;5036434;28;20655;-83
2020/12/06 02:56:37;;;;;;;155.67;29.37;;;2.60;99.90;;;;;;5036054;28;20239;-83
2020/12/06 02:59:03;;;;;;;227.77;40.97;;;2.60;99.90;;;;;;5036409;28;20243;-83
2020/12/06 03:01:30;;;;;;;270.07;39.47;;;3.00;99.90;;;;;;5036452;28;20172;-83
2020/12/06 03:03:56;;;;;;;204.60;36.50;;;3.00;99.90;;;;;;5036370;28;20235;-83
2020/12/06 03:06:22;;;;;;;279.63;42.43;;;3.10;99.90;;;;;;5035114;28;20431;-82
2020/12/06 03:08:47;;;;;;;244.03;42.70;;;2.80;99.90;;;;;;5036137;28;20768;-84
2020/12/06 03:11:13;;;;;;;491.10;66.57;;;2.80;99.90;;;;;;5035209;28;20176;-83
2020/12/06 03:13:39;;;;;;;418.17;57.47;;;3.00;99.90;;;;;;5036159;28;20427;-83
2020/12/06 03:16:05;;;;;;;283.07;40.90;;;3.10;99.90;;;;;;5035184;28;20179;-84
2020/12/06 03:18:31;;;;;;;255.97;40.87;;;2.70;99.90;;;;;;5035930;28;20204;-83
2020/12/06 03:20:57;;;;;;;379.07;61.40;;;3.00;99.90;;;;;;5036141;28;20779;-83
2020/12/06 03:23:22;;;;;;;293.83;44.67;;;2.60;99.90;;;;;;5036146;28;20419;-83
2020/12/06 03:25:48;;;;;;;301.67;41.40;;;2.80;99.90;;;;;;5036020;28;20632;-83
2020/12/06 03:28:14;;;;;;;336.37;46.03;;;2.70;99.90;;;;;;5035982;28;20180;-83
2020/12/06 03:30:39;;;;;;;425.10;54.37;;;2.70;99.90;;;;;;5035844;28;20195;-84
2020/12/06 03:33:05;;;;;;;469.80;57.27;;;2.60;99.90;;;;;;5035659;28;20184;-83
2020/12/06 03:35:31;;;;;;;337.27;47.40;;;2.70;99.90;;;;;;5035608;28;20259;-83
2020/12/06 03:37:56;;;;;;;249.37;38.20;;;3.30;99.90;;;;;;5035502;28;20208;-84
2020/12/06 03:40:22;;;;;;;201.83;38.73;;;3.00;99.90;;;;;;5034301;28;20536;-84
2020/12/06 03:42:50;;;;;;;528.13;61.70;;;3.20;99.90;;;;;;5035502;28;20255;-83
2020/12/06 03:45:16;;;;;;;422.53;55.97;;;3.30;99.90;;;;;;5035511;28;20168;-84
2020/12/06 03:47:42;;;;;;;459.70;58.57;;;3.20;99.90;;;;;;5035435;28;20976;-83
2020/12/06 03:50:07;;;;;;;300.47;38.07;;;2.90;99.90;;;;;;5034177;28;20185;-83
2020/12/06 03:52:33;;;;;;;273.60;44.57;;;2.70;99.90;;;;;;5034173;28;20177;-84
2020/12/06 03:54:58;;;;;;;403.27;52.37;;;3.10;99.90;;;;;;5035313;28;20169;-83
2020/12/06 03:57:24;;;;;;;351.00;49.77;;;3.10;99.90;;;;;;5034850;28;20224;-83
2020/12/06 03:59:49;;;;;;;254.00;41.63;;;2.80;99.90;;;;;;5035230;28;20228;-84
2020/12/06 04:02:15;;;;;;;440.33;62.10;;;2.70;99.90;;;;;;5035077;28;20254;-84
2020/12/06 04:04:41;;;;;;;543.40;79.40;;;3.10;99.90;;;;;;5035141;28;20640;-83
2020/12/06 04:07:07;;;;;;;201.83;31.87;;;3.10;99.90;;;;;;5033802;28;20181;-82
2020/12/06 04:09:32;;;;;;;294.57;42.17;;;2.70;99.90;;;;;;5037845;28;20419;-84
2020/12/06 04:11:58;;;;;;;500.73;70.87;;;2.60;99.90;;;;;;5034168;28;20236;-84
2020/12/06 04:14:23;;;;;;;271.00;42.40;;;2.70;99.90;;;;;;5033837;28;20173;-83
2020/12/06 04:16:49;;;;;;;185.57;31.97;;;3.10;99.90;;;;;;5034992;28;20311;-83
2020/12/06 04:19:14;;;;;;;440.40;58.53;;;3.20;99.90;;;;;;5034819;28;20176;-83
2020/12/06 04:21:40;;;;;;;457.60;65.33;;;2.60;99.90;;;;;;5034974;28;20172;-84
2020/12/06 04:24:05;;;;;;;165.60;40.90;;;3.10;99.90;;;;;;5034849;28;20176;-83
2020/12/06 04:26:31;;;;;;;75.37;34.00;;;2.60;99.90;;;;;;5032901;28;20173;-84
2020/12/06 04:28:57;;;;;;;120.00;33.57;;;2.70;99.90;;;;;;5034115;28;20553;-83
2020/12/06 04:31:24;;;;;;;62.97;31.13;;;2.90;99.90;;;;;;5033634;28;20211;-83
2020/12/06 04:33:49;;;;;;;60.30;31.10;;;2.50;99.90;;;;;;5033355;28;20412;-84
2020/12/06 04:36:15;;;;;;;56.70;32.17;;;2.40;99.90;;;;;;5034628;28;20435;-83
2020/12/06 04:38:40;;;;;;;54.47;29.93;;;3.00;99.90;;;;;;5034456;28;20670;-84
2020/12/06 04:41:06;;;;;;;66.00;35.17;;;2.60;99.90;;;;;;5034346;28;20180;-83
2020/12/06 04:43:33;;;;;;;56.60;30.57;;;2.60;99.90;;;;;;5034642;28;20176;-83
2020/12/06 04:45:59;;;;;;;51.97;29.30;;;2.60;99.90;;;;;;5033095;28;20186;-83
2020/12/06 04:48:51;;;;;;;56.90;30.63;;;2.70;99.90;;;;;;5034424;28;20427;-84
2020/12/06 04:51:18;;;;;;;54.37;28.37;;;2.90;99.90;;;;;;5034193;28;20418;-83
2020/12/06 04:53:55;;;;;;;55.93;31.50;;;2.50;99.90;;;;;;5032280;28;20419;-83
2020/12/06 04:56:22;;;;;;;55.67;30.60;;;3.00;99.90;;;;;;5033920;28;20469;-83
2020/12/06 04:58:51;;;;;;;65.37;30.17;;;2.40;99.90;;;;;;5032956;28;20764;-83
2020/12/06 05:01:19;;;;;;;49.83;28.57;;;2.60;99.90;;;;;;5034078;28;20415;-83
2020/12/06 05:03:49;;;;;;;52.20;30.53;;;2.40;99.90;;;;;;5034123;28;20498;-83
2020/12/06 05:06:19;;;;;;;59.87;29.90;;;2.30;99.90;;;;;;5034028;28;20767;-83
2020/12/06 05:08:45;;;;;;;55.20;29.47;;;2.80;99.90;;;;;;5032678;28;20454;-83
2020/12/06 05:11:11;;;;;;;52.53;28.77;;;2.70;99.90;;;;;;5034092;28;20415;-83
2020/12/06 05:13:37;;;;;;;51.93;28.17;;;2.60;99.90;;;;;;5032559;28;20416;-83
2020/12/06 05:16:06;;;;;;;46.40;27.20;;;2.50;99.90;;;;;;5033703;28;20423;-83
2020/12/06 05:18:32;;;;;;;51.70;27.70;;;2.50;99.90;;;;;;5033835;28;20634;-83
2020/12/06 05:20:57;;;;;;;68.53;29.80;;;2.70;99.90;;;;;;5033654;28;20503;-83
2020/12/06 05:23:23;;;;;;;58.57;29.97;;;2.40;99.90;;;;;;5033671;28;20259;-83
2020/12/06 05:25:49;;;;;;;92.60;31.90;;;2.50;99.90;;;;;;5032550;28;20177;-84
2020/12/06 05:28:19;;;;;;;102.70;32.80;;;2.60;99.90;;;;;;5034028;28;20563;-83
2020/12/06 05:30:45;;;;;;;197.33;42.23;;;2.60;99.90;;;;;;5035854;28;20427;-82
2020/12/06 05:33:11;;;;;;;302.17;47.93;;;2.60;99.90;;;;;;5033588;28;20427;-83
2020/12/06 05:35:41;;;;;;;140.50;28.47;;;2.40;99.90;;;;;;5032454;28;20180;-83
2020/12/06 05:38:07;;;;;;;325.37;46.60;;;2.40;99.90;;;;;;5032031;28;20475;-83
2020/12/06 05:40:32;;;;;;;332.67;58.57;;;2.40;99.90;;;;;;5033661;28;20447;-83
2020/12/06 05:42:58;;;;;;;222.57;43.67;;;3.10;99.90;;;;;;5032160;28;20501;-82
2020/12/06 05:45:24;;;;;;;211.37;42.70;;;3.10;99.90;;;;;;5033154;28;20181;-83
2020/12/06 05:47:51;;;;;;;126.37;31.30;;;2.60;99.90;;;;;;5033463;28;20177;-83
2020/12/06 05:50:17;;;;;;;273.07;45.87;;;2.50;99.90;;;;;;5033503;28;20539;-83
2020/12/06 05:52:42;;;;;;;105.43;26.10;;;2.50;99.90;;;;;;5032169;28;20446;-83
2020/12/06 05:55:08;;;;;;;292.17;54.60;;;2.60;99.90;;;;;;5033436;28;20196;-83
2020/12/06 05:57:33;;;;;;;269.67;45.80;;;2.70;99.90;;;;;;5032947;28;20228;-83
2020/12/06 06:00:01;;;;;;;285.87;45.20;;;2.50;99.90;;;;;;5032162;28;20176;-83
2020/12/06 06:02:27;;;;;;;395.50;52.27;;;2.60;99.90;;;;;;5033160;28;20191;-83
2020/12/06 06:05:01;;;;;;;229.63;37.93;;;2.90;99.90;;;;;;5033630;28;20415;-83
2020/12/06 06:07:27;;;;;;;290.77;46.87;;;2.50;99.90;;;;;;5033287;28;20895;-83
2020/12/06 06:10:16;;;;;;;296.30;44.43;;;2.80;99.90;;;;;;5031973;28;20515;-83
2020/12/06 06:12:51;;;;;;;246.00;38.90;;;3.10;99.90;;;;;;5033327;28;20411;-84
2020/12/06 06:15:18;;;;;;;197.37;37.47;;;2.50;99.90;;;;;;5033294;28;20430;-82
2020/12/06 06:17:45;;;;;;;159.63;29.20;;;2.50;99.90;;;;;;5032032;28;20467;-83
2020/12/06 06:20:11;;;;;;;129.70;26.27;;;3.00;99.90;;;;;;5031894;28;20422;-83
2020/12/06 06:22:40;;;;;;;190.10;35.13;;;2.40;99.90;;;;;;5031762;28;20423;-83
2020/12/06 06:25:06;;;;;;;226.43;31.80;;;2.40;99.90;;;;;;5032022;28;20272;-83
2020/12/06 06:27:36;;;;;;;166.73;39.70;;;2.50;99.90;;;;;;5022696;28;20436;-82
2020/12/06 06:30:06;;;;;;;284.07;46.77;;;2.80;99.90;;;;;;5026983;28;20430;-83
2020/12/06 06:32:32;;;;;;;197.17;36.73;;;3.00;99.90;;;;;;5031704;28;20469;-82
2020/12/06 06:34:59;;;;;;;201.70;35.37;;;2.60;99.90;;;;;;5031929;28;20415;-83
2020/12/06 06:37:29;;;;;;;125.93;27.40;;;2.40;99.90;;;;;;5031808;28;20553;-84
2020/12/06 06:40:00;;;;;;;117.00;23.73;;;2.50;99.90;;;;;;5032119;28;20400;-84
2020/12/06 06:42:27;;;;;;;120.63;27.20;;;2.70;99.90;;;;;;5036659;28;20945;-83
2020/12/06 06:45:06;;;;;;;126.77;28.03;;;2.90;99.90;;;;;;5045063;28;20893;-84
2020/12/06 06:47:35;;;;;;;200.47;29.00;;;3.20;99.90;;;;;;5040808;28;20423;-85
2020/12/06 06:50:01;;;;;;;67.07;19.20;;;2.80;99.90;;;;;;5032744;28;20768;-84
2020/12/06 06:52:28;;;;;;;106.23;22.30;;;3.20;99.90;;;;;;5036150;28;20453;-83
2020/12/06 06:54:58;;;;;;;194.83;30.30;;;2.70;99.90;;;;;;5035665;28;20738;-84
2020/12/06 06:57:26;;;;;;;92.13;23.53;;;2.60;99.90;;;;;;5035384;28;20493;-83
2020/12/06 06:59:56;;;;;;;141.73;26.10;;;2.70;99.90;;;;;;5035475;28;20416;-83
2020/12/06 07:02:39;;;;;;;107.93;22.10;;;3.20;99.90;;;;;;5015068;28;21646;-84
2020/12/06 07:05:14;;;;;;;76.57;22.67;;;3.10;99.90;;;;;;5051624;28;20418;-83
2020/12/06 07:07:43;;;;;;;96.87;24.07;;;3.00;99.90;;;;;;5055238;28;20460;-84
2020/12/06 07:10:11;;;;;;;195.77;36.20;;;2.50;99.90;;;;;;5053323;28;20473;-84
2020/12/06 07:12:38;;;;;;;97.30;22.93;;;3.10;99.90;;;;;;5055055;28;20418;-84
2020/12/06 07:15:08;;;;;;;114.07;27.40;;;2.80;99.90;;;;;;5055420;28;20940;-84
2020/12/06 07:17:34;;;;;;;145.47;28.43;;;2.90;99.90;;;;;;5054804;28;20460;-83
2020/12/06 07:20:00;;;;;;;150.07;28.67;;;3.00;99.90;;;;;;5053999;28;20422;-84
2020/12/06 07:22:26;;;;;;;99.93;26.80;;;2.50;99.90;;;;;;5016546;28;20173;-83
2020/12/06 07:24:51;;;;;;;109.87;27.33;;;3.20;99.90;;;;;;5015689;28;20559;-84
2020/12/06 07:27:17;;;;;;;111.77;25.20;;;3.10;99.90;;;;;;5055227;28;20425;-84
2020/12/06 07:29:42;;;;;;;97.63;26.53;;;2.60;99.90;;;;;;5055181;28;20188;-84
2020/12/06 07:32:09;;;;;;;73.73;21.97;;;2.90;99.90;;;;;;5054762;28;20211;-84
2020/12/06 07:34:34;;;;;;;44.27;17.60;;;3.10;99.90;;;;;;5054556;28;20184;-85
2020/12/06 07:37:01;;;;;;;92.83;21.63;;;2.70;99.90;;;;;;5053242;28;20527;-84
2020/12/06 07:39:26;;;;;;;79.90;23.13;;;2.70;99.90;;;;;;5054915;28;20179;-84
2020/12/06 07:41:52;;;;;;;67.17;20.60;;;2.90;99.90;;;;;;5053041;28;20827;-84
2020/12/06 07:44:17;;;;;;;60.83;17.00;;;2.70;99.90;;;;;;5054532;28;20183;-84
2020/12/06 07:46:43;;;;;;;125.40;23.53;;;2.60;99.90;;;;;;5054711;28;20594;-85
2020/12/06 07:49:09;;;;;;;108.27;22.60;;;2.70;99.90;;;;;;5053251;28;20655;-84
2020/12/06 07:51:35;;;;;;;69.70;17.33;;;2.80;99.90;;;;;;5054314;28;20187;-84
2020/12/06 07:54:02;;;;;;;126.60;24.53;;;2.70;99.90;;;;;;5041180;28;20779;-85
2020/12/06 07:56:31;;;;;;;108.43;22.57;;;2.70;99.90;;;;;;5033985;28;20240;-84
2020/12/06 07:59:06;;;;;;;114.77;21.27;;;2.80;99.90;;;;;;5015674;28;20923;-84
2020/12/06 08:01:32;;;;;;;79.50;17.30;;;2.80;99.90;;;;;;5014442;28;20415;-83
2020/12/06 08:03:59;;;;;;;110.63;20.63;;;3.20;99.90;;;;;;5014314;28;20416;-84
2020/12/06 08:06:27;;;;;;;179.43;35.13;;;2.70;99.90;;;;;;5014479;28;20459;-84
2020/12/06 08:09:00;;;;;;;159.03;30.33;;;2.80;99.90;;;;;;5014283;28;20450;-84
2020/12/06 08:11:41;;;;;;;119.43;33.67;;;2.90;99.90;;;;;;5014460;28;20780;-84
2020/12/06 08:14:08;;;;;;;76.30;20.90;;;3.20;99.90;;;;;;5015580;28;20424;-83
2020/12/06 08:16:33;;;;;;;56.67;17.50;;;3.00;99.90;;;;;;5014250;28;20420;-84
2020/12/06 08:19:00;;;;;;;89.10;25.47;;;3.30;99.90;;;;;;5012954;28;20827;-85
2020/12/06 08:21:41;;;;;;;72.03;20.13;;;3.00;99.90;;;;;;5014281;28;20210;-84
2020/12/06 08:24:23;;;;;;;56.07;19.70;;;3.30;99.90;;;;;;5014947;28;20422;-86
2020/12/06 08:26:50;;;;;;;53.00;20.07;;;3.00;99.90;;;;;;5013363;28;20432;-83
2020/12/06 08:29:16;;;;;;;61.40;21.60;;;2.90;99.90;;;;;;5013923;28;20421;-84
2020/12/06 08:31:43;;;;;;;45.10;16.10;;;3.40;99.90;;;;;;5014421;28;20963;-85
2020/12/06 08:34:16;;;;;;;45.20;17.37;;;3.00;99.90;;;;;;5014192;28;20460;-84
2020/12/06 08:36:42;;;;;;;45.17;16.30;;;3.60;99.90;;;;;;5012534;28;20428;-85
2020/12/06 08:39:22;;;;;;;44.80;15.17;;;3.20;99.90;;;;;;5012745;28;20431;-85
2020/12/06 08:41:49;;;;;;;39.80;16.33;;;3.00;99.90;;;;;;5015008;28;20412;-85
2020/12/06 08:44:15;;;;;;;36.63;14.00;;;3.40;99.90;;;;;;5022805;28;20426;-84
2020/12/06 08:46:53;;;;;;;34.60;15.07;;;3.00;99.90;;;;;;5054250;28;20415;-83
2020/12/06 08:49:21;;;;;;;31.50;15.73;;;3.40;99.90;;;;;;5053552;28;20420;-85
2020/12/06 08:51:49;;;;;;;32.93;15.93;;;3.50;99.90;;;;;;5053837;28;20411;-83
2020/12/06 08:54:30;;;;;;;29.43;16.73;;;3.30;99.90;;;;;;5054377;28;20422;-85
2020/12/06 08:57:06;;;;;;;32.07;15.43;;;3.40;99.90;;;;;;5051367;28;20573;-84
2020/12/06 08:59:35;;;;;;;30.50;16.17;;;3.10;99.90;;;;;;5032760;28;20985;-84
2020/12/06 09:02:02;;;;;;;37.40;15.83;;;3.40;99.90;;;;;;5032800;28;20566;-85
2020/12/06 09:04:28;;;;;;;33.70;15.70;;;3.20;99.90;;;;;;5035023;28;20426;-86
2020/12/06 09:06:56;;;;;;;29.20;16.77;;;3.50;99.90;;;;;;5038107;28;20526;-84
2020/12/06 09:09:21;;;;;;;29.33;16.10;;;3.30;99.90;;;;;;5031664;28;20187;-84
2020/12/06 09:11:51;;;;;;;33.37;15.80;;;3.20;99.90;;;;;;5033793;28;20411;-85
2020/12/06 09:14:17;;;;;;;29.20;16.73;;;3.50;99.90;;;;;;5031540;28;20723;-82
2020/12/06 09:16:42;;;;;;;35.00;15.60;;;3.60;99.90;;;;;;5034199;28;20411;-83
2020/12/06 09:19:08;;;;;;;34.37;19.80;;;3.40;99.90;;;;;;5033612;28;20180;-87
2020/12/06 09:21:33;;;;;;;34.17;19.47;;;3.50;99.90;;;;;;5032591;28;20204;-84
2020/12/06 09:23:59;;;;;;;36.83;20.77;;;3.30;99.90;;;;;;5033531;28;20173;-85
2020/12/06 09:26:24;;;;;;;43.27;21.40;;;3.20;99.90;;;;;;5033414;28;20184;-82
2020/12/06 09:28:50;;;;;;;35.63;20.70;;;3.80;99.90;;;;;;5033712;28;20187;-85
2020/12/06 09:31:19;;;;;;;30.30;17.73;;;3.20;99.90;;;;;;5034134;28;20643;-83
2020/12/06 09:33:45;;;;;;;48.83;16.93;;;3.40;99.90;;;;;;5031959;28;20544;-83
2020/12/06 09:36:10;;;;;;;30.37;17.60;;;3.60;99.90;;;;;;5031253;28;20431;-87
2020/12/06 09:38:36;;;;;;;31.97;15.97;;;3.70;99.90;;;;;;5032945;28;20215;-81
2020/12/06 09:41:01;;;;;;;32.07;16.70;;;3.50;99.90;;;;;;5034292;28;20180;-84
2020/12/06 09:43:27;;;;;;;28.30;15.83;;;3.80;99.90;;;;;;5031333;28;20187;-83
2020/12/06 09:45:52;;;;;;;28.53;16.20;;;3.90;99.90;;;;;;5031705;28;20176;-84
2020/12/06 09:48:18;;;;;;;29.57;17.40;;;3.40;99.90;;;;;;5031219;28;20188;-84
2020/12/06 09:50:43;;;;;;;31.33;18.90;;;3.30;99.90;;;;;;5032406;28;20212;-83
2020/12/06 09:53:09;;;;;;;32.30;17.23;;;3.80;99.90;;;;;;5032474;28;20620;-83
2020/12/06 09:55:35;;;;;;;29.10;17.03;;;3.80;99.90;;;;;;5033056;28;20180;-84
2020/12/06 09:58:01;;;;;;;27.80;16.03;;;3.90;99.90;;;;;;5031056;28;20233;-85
2020/12/06 10:00:26;;;;;;;28.70;18.13;;;3.40;99.90;;;;;;5031958;28;20438;-84
2020/12/06 10:02:53;;;;;;;32.93;19.10;;;3.30;99.90;;;;;;5032259;28;20177;-83
2020/12/06 10:05:18;;;;;;;16.67;10.93;;;3.50;99.90;;;;;;5031388;28;20200;-82
2020/12/06 10:07:44;;;;;;;30.60;18.20;;;3.80;99.90;;;;;;5031522;28;20482;-84
2020/12/06 10:10:09;;;;;;;28.47;15.77;;;3.70;99.90;;;;;;5032122;28;20168;-84
2020/12/06 10:12:35;;;;;;;23.23;12.70;;;3.40;99.90;;;;;;5031663;28;20176;-83
2020/12/06 10:15:03;;;;;;;28.70;16.40;;;3.70;99.90;;;;;;5031856;28;20188;-84
2020/12/06 10:17:29;;;;;;;28.37;15.93;;;3.40;99.90;;;;;;5030725;28;20639;-84
2020/12/06 10:19:55;;;;;;;23.30;14.20;;;3.30;99.90;;;;;;5032142;28;20506;-83
2020/12/06 10:22:20;;;;;;;22.10;14.57;;;3.40;99.90;;;;;;5032147;28;20655;-84
2020/12/06 10:24:46;;;;;;;22.87;16.17;;;3.50;99.90;;;;;;5033250;28;20595;-83
2020/12/06 10:27:11;;;;;;;28.10;15.87;;;3.80;99.90;;;;;;5036388;28;20172;-84
2020/12/06 10:29:38;;;;;;;21.87;13.73;;;3.40;99.90;;;;;;5036079;28;20177;-83
2020/12/06 10:32:03;;;;;;;21.73;15.97;;;3.30;99.90;;;;;;5036045;28;20165;-84
2020/12/06 10:34:29;;;;;;;22.83;12.70;;;3.40;99.90;;;;;;5035940;28;20426;-85
2020/12/06 10:36:57;;;;;;;17.90;12.77;;;3.80;99.90;;;;;;5035984;28;20200;-84
2020/12/06 10:39:25;;;;;;;20.37;11.90;;;3.40;99.90;;;;;;5036117;28;20173;-84
2020/12/06 10:41:52;;;;;;;20.73;12.43;;;3.90;99.90;;;;;;5035750;28;20416;-84
2020/12/06 10:44:18;;;;;;;16.27;11.27;;;3.40;99.90;;;;;;5035008;28;20419;-83
2020/12/06 10:46:44;;;;;;;17.27;11.53;;;3.70;99.90;;;;;;5035436;28;20450;-83
2020/12/06 10:49:11;;;;;;;19.97;14.53;;;4.00;99.90;;;;;;5006161;28;20790;-82
2020/12/06 10:51:40;;;;;;;15.80;10.07;;;3.70;99.90;;;;;;5026377;28;20911;-83
2020/12/06 10:54:06;;;;;;;18.60;12.70;;;3.30;99.90;;;;;;5038754;28;20508;-82
2020/12/06 10:56:32;;;;;;;20.70;14.13;;;3.40;99.90;;;;;;5051813;28;20462;-82
2020/12/06 10:58:58;;;;;;;22.70;15.33;;;3.60;99.90;;;;;;5036767;28;20478;-83
2020/12/06 11:01:28;;;;;;;23.20;15.50;;;4.00;99.90;;;;;;5035776;28;20187;-84
2020/12/06 11:03:54;;;;;;;19.03;13.23;;;3.70;99.90;;;;;;5005831;28;20522;-83
2020/12/06 11:06:23;;;;;;;21.90;14.90;;;4.00;99.90;;;;;;5035659;28;20546;-83
2020/12/06 11:08:49;;;;;;;19.93;14.97;;;3.70;99.90;;;;;;5035461;28;20523;-83
2020/12/06 11:11:16;;;;;;;17.83;13.87;;;4.00;99.90;;;;;;5035351;28;20419;-84
2020/12/06 11:13:42;;;;;;;18.43;14.20;;;4.00;99.90;;;;;;5034900;28;20435;-83
2020/12/06 11:16:08;;;;;;;24.43;11.70;;;3.80;99.90;;;;;;5035428;28;20929;-82
2020/12/06 11:18:34;;;;;;;15.17;10.70;;;4.20;99.90;;;;;;5035277;28;20266;-84
2020/12/06 11:20:59;;;;;;;12.73;11.20;;;3.80;99.90;;;;;;5035129;28;20179;-84
2020/12/06 11:23:25;;;;;;;12.60;10.50;;;4.00;99.90;;;;;;5035970;28;20184;-84
2020/12/06 11:25:51;;;;;;;12.73;10.87;;;3.80;99.90;;;;;;5034097;28;20646;-84
2020/12/06 11:28:18;;;;;;;12.37;10.03;;;4.40;99.90;;;;;;5035097;28;20419;-83
2020/12/06 11:30:43;;;;;;;13.70;10.47;;;3.80;99.90;;;;;;5034193;28;20419;-82
2020/12/06 11:33:09;;;;;;;10.43;8.40;;;4.00;99.90;;;;;;5035152;28;20972;-83
2020/12/06 11:35:34;;;;;;;9.73;7.73;;;4.20;99.90;;;;;;5035869;28;20180;-83
2020/12/06 11:38:00;;;;;;;8.77;6.90;;;4.10;99.90;;;;;;5035094;28;20255;-84
2020/12/06 11:40:25;;;;;;;9.57;8.70;;;4.40;99.90;;;;;;5033555;28;20180;-84
2020/12/06 11:42:51;;;;;;;8.43;7.73;;;3.90;99.90;;;;;;5042276;28;20198;-83
2020/12/06 11:45:17;;;;;;;7.20;6.50;;;4.40;99.90;;;;;;5053401;28;20176;-84
2020/12/06 11:47:42;;;;;;;9.30;8.50;;;4.50;99.90;;;;;;5053678;28;20379;-84
2020/12/06 11:50:08;;;;;;;7.33;6.70;;;4.10;99.90;;;;;;5054392;28;20215;-84
2020/12/06 11:52:33;;;;;;;7.13;6.53;;;4.20;99.90;;;;;;5053128;28;20221;-83
2020/12/06 11:54:59;;;;;;;6.83;6.23;;;4.10;99.90;;;;;;5054385;28;20229;-84
2020/12/06 11:57:25;;;;;;;6.80;6.07;;;4.60;99.90;;;;;;5054300;28;20247;-84
2020/12/06 11:59:50;;;;;;;7.80;7.10;;;4.30;99.90;;;;;;5055240;28;20647;-86
2020/12/06 12:02:16;;;;;;;6.87;5.70;;;4.60;99.90;;;;;;5038804;28;20231;-83
2020/12/06 12:04:41;;;;;;;7.77;7.07;;;4.60;99.90;;;;;;5034276;28;20200;-84
2020/12/06 12:07:07;;;;;;;8.70;7.23;;;4.60;99.90;;;;;;5033465;28;20172;-83
2020/12/06 12:09:32;;;;;;;8.03;7.33;;;4.70;99.90;;;;;;5033879;28;20540;-83
2020/12/06 12:11:58;;;;;;;7.40;6.80;;;4.70;99.90;;;;;;5034329;28;20180;-83
2020/12/06 12:14:26;;;;;;;9.00;8.20;;;4.70;99.90;;;;;;5033292;28;20184;-83
2020/12/06 12:16:52;;;;;;;8.07;7.27;;;4.90;99.90;;;;;;5034337;28;20256;-84
2020/12/06 12:19:18;;;;;;;7.57;6.97;;;4.80;99.90;;;;;;5033601;28;20522;-84
2020/12/06 12:21:44;;;;;;;10.03;9.13;;;4.80;99.90;;;;;;5033696;28;20259;-84
2020/12/06 12:24:09;;;;;;;8.83;8.03;;;4.80;99.90;;;;;;5035492;28;20177;-84
2020/12/06 12:26:35;;;;;;;8.47;7.77;;;4.90;99.90;;;;;;5033895;28;20250;-84
2020/12/06 12:29:00;;;;;;;7.50;6.80;;;4.90;99.90;;;;;;5033833;28;20172;-83
2020/12/06 12:31:27;;;;;;;8.97;8.20;;;4.90;99.90;;;;;;5031303;28;20201;-83